sensor_id;sensor_type;location;lat;lon;timestamp;temperature;humidity
52656;SHT85;35474;51.032;6.998;2023-04-24T00:00:34;12.60;70.88
52656;SHT85;35474;51.032;6.998;2023-04-24T00:03:02;12.55;70.99
52656;SHT85;35474;51.032;6.998;2023-04-24T00:05:29;12.51;71.44
52656;SHT85;35474;51.032;6.998;2023-04-24T00:07:55;12.50;71.23
52656;SHT85;35474;51.032;6.998;2023-04-24T00:10:22;12.43;71.33
52656;SHT85;35474;51.032;6.998;2023-04-24T00:12:48;12.51;71.53
52656;SHT85;35474;51.032;6.998;2023-04-24T00:15:15;12.40;72.05
52656;SHT85;35474;51.032;6.998;2023-04-24T00:17:42;12.33;72.24
52656;SHT85;35474;51.032;6.998;2023-04-24T00:20:08;12.33;72.22
52656;SHT85;35474;51.032;6.998;2023-04-24T00:22:36;12.31;72.41
52656;SHT85;35474;51.032;6.998;2023-04-24T00:25:03;12.26;72.73
52656;SHT85;35474;51.032;6.998;2023-04-24T00:27:29;12.24;73.02
52656;SHT85;35474;51.032;6.998;2023-04-24T00:29:56;12.33;72.43
52656;SHT85;35474;51.032;6.998;2023-04-24T00:32:22;12.24;72.63
52656;SHT85;35474;51.032;6.998;2023-04-24T00:34:49;12.27;72.07
52656;SHT85;35474;51.032;6.998;2023-04-24T00:37:16;12.28;71.58
52656;SHT85;35474;51.032;6.998;2023-04-24T00:39:42;12.33;70.81
52656;SHT85;35474;51.032;6.998;2023-04-24T00:42:09;12.31;71.11
52656;SHT85;35474;51.032;6.998;2023-04-24T00:44:36;12.31;70.96
52656;SHT85;35474;51.032;6.998;2023-04-24T00:47:02;12.47;70.02
52656;SHT85;35474;51.032;6.998;2023-04-24T00:49:29;12.46;70.08
52656;SHT85;35474;51.032;6.998;2023-04-24T00:51:56;12.41;70.25
52656;SHT85;35474;51.032;6.998;2023-04-24T00:54:25;12.40;69.58
52656;SHT85;35474;51.032;6.998;2023-04-24T00:56:51;12.36;69.73
52656;SHT85;35474;51.032;6.998;2023-04-24T00:59:18;12.21;69.73
52656;SHT85;35474;51.032;6.998;2023-04-24T01:01:45;12.18;69.34
52656;SHT85;35474;51.032;6.998;2023-04-24T01:04:12;12.14;69.36
52656;SHT85;35474;51.032;6.998;2023-04-24T01:06:39;12.07;68.97
52656;SHT85;35474;51.032;6.998;2023-04-24T01:09:06;12.02;69.58
52656;SHT85;35474;51.032;6.998;2023-04-24T01:11:36;12.02;69.65
52656;SHT85;35474;51.032;6.998;2023-04-24T01:14:03;12.02;69.92
52656;SHT85;35474;51.032;6.998;2023-04-24T01:16:30;11.97;69.90
52656;SHT85;35474;51.032;6.998;2023-04-24T01:18:57;11.96;70.20
52656;SHT85;35474;51.032;6.998;2023-04-24T01:21:23;11.92;69.83
52656;SHT85;35474;51.032;6.998;2023-04-24T01:23:53;11.89;69.80
52656;SHT85;35474;51.032;6.998;2023-04-24T01:26:21;11.95;69.77
52656;SHT85;35474;51.032;6.998;2023-04-24T01:28:49;11.85;68.72
52656;SHT85;35474;51.032;6.998;2023-04-24T01:31:15;11.81;68.32
52656;SHT85;35474;51.032;6.998;2023-04-24T01:33:42;11.79;68.47
52656;SHT85;35474;51.032;6.998;2023-04-24T01:36:10;11.76;68.31
52656;SHT85;35474;51.032;6.998;2023-04-24T01:38:37;11.70;68.84
52656;SHT85;35474;51.032;6.998;2023-04-24T01:41:03;11.57;69.49
52656;SHT85;35474;51.032;6.998;2023-04-24T01:43:30;11.45;70.14
52656;SHT85;35474;51.032;6.998;2023-04-24T01:45:57;11.48;70.48
52656;SHT85;35474;51.032;6.998;2023-04-24T01:48:24;11.48;70.80
52656;SHT85;35474;51.032;6.998;2023-04-24T01:50:50;11.37;71.28
52656;SHT85;35474;51.032;6.998;2023-04-24T01:53:17;11.27;71.67
52656;SHT85;35474;51.032;6.998;2023-04-24T01:55:43;11.17;72.12
52656;SHT85;35474;51.032;6.998;2023-04-24T01:58:10;11.14;72.33
52656;SHT85;35474;51.032;6.998;2023-04-24T02:00:36;11.03;72.62
52656;SHT85;35474;51.032;6.998;2023-04-24T02:03:03;10.99;72.28
52656;SHT85;35474;51.032;6.998;2023-04-24T02:05:30;11.01;71.95
52656;SHT85;35474;51.032;6.998;2023-04-24T02:07:56;10.86;71.80
52656;SHT85;35474;51.032;6.998;2023-04-24T02:10:23;10.81;71.75
52656;SHT85;35474;51.032;6.998;2023-04-24T02:12:51;10.75;71.62
52656;SHT85;35474;51.032;6.998;2023-04-24T02:15:17;10.60;72.06
52656;SHT85;35474;51.032;6.998;2023-04-24T02:17:44;10.44;72.34
52656;SHT85;35474;51.032;6.998;2023-04-24T02:20:10;10.29;72.63
52656;SHT85;35474;51.032;6.998;2023-04-24T02:22:37;10.14;73.16
52656;SHT85;35474;51.032;6.998;2023-04-24T02:25:03;10.04;73.59
52656;SHT85;35474;51.032;6.998;2023-04-24T02:27:31;10.05;73.56
52656;SHT85;35474;51.032;6.998;2023-04-24T02:29:57;9.97;73.88
52656;SHT85;35474;51.032;6.998;2023-04-24T02:32:24;9.97;74.12
52656;SHT85;35474;51.032;6.998;2023-04-24T02:34:50;9.90;74.25
52656;SHT85;35474;51.032;6.998;2023-04-24T02:37:17;9.86;74.54
52656;SHT85;35474;51.032;6.998;2023-04-24T02:39:43;9.83;74.77
52656;SHT85;35474;51.032;6.998;2023-04-24T02:42:10;9.87;74.67
52656;SHT85;35474;51.032;6.998;2023-04-24T02:44:36;9.97;74.50
52656;SHT85;35474;51.032;6.998;2023-04-24T02:47:03;10.00;74.40
52656;SHT85;35474;51.032;6.998;2023-04-24T02:49:29;10.04;74.40
52656;SHT85;35474;51.032;6.998;2023-04-24T02:51:56;10.07;74.52
52656;SHT85;35474;51.032;6.998;2023-04-24T02:54:22;10.21;74.31
52656;SHT85;35474;51.032;6.998;2023-04-24T02:56:49;10.25;74.37
52656;SHT85;35474;51.032;6.998;2023-04-24T02:59:15;10.29;73.86
52656;SHT85;35474;51.032;6.998;2023-04-24T03:01:42;10.37;74.29
52656;SHT85;35474;51.032;6.998;2023-04-24T03:04:08;10.35;73.58
52656;SHT85;35474;51.032;6.998;2023-04-24T03:06:36;10.41;73.83
52656;SHT85;35474;51.032;6.998;2023-04-24T03:09:03;10.39;73.88
52656;SHT85;35474;51.032;6.998;2023-04-24T03:11:29;10.45;73.73
52656;SHT85;35474;51.032;6.998;2023-04-24T03:13:56;10.38;73.42
52656;SHT85;35474;51.032;6.998;2023-04-24T03:16:22;10.39;73.58
52656;SHT85;35474;51.032;6.998;2023-04-24T03:18:49;10.32;73.25
52656;SHT85;35474;51.032;6.998;2023-04-24T03:21:15;10.26;73.36
52656;SHT85;35474;51.032;6.998;2023-04-24T03:23:41;10.24;73.29
52656;SHT85;35474;51.032;6.998;2023-04-24T03:26:08;10.26;73.36
52656;SHT85;35474;51.032;6.998;2023-04-24T03:28:34;10.31;73.72
52656;SHT85;35474;51.032;6.998;2023-04-24T03:31:02;10.39;73.40
52656;SHT85;35474;51.032;6.998;2023-04-24T03:33:29;10.26;73.52
52656;SHT85;35474;51.032;6.998;2023-04-24T03:35:56;10.33;73.36
52656;SHT85;35474;51.032;6.998;2023-04-24T03:38:22;10.37;73.67
52656;SHT85;35474;51.032;6.998;2023-04-24T03:40:48;10.33;73.57
52656;SHT85;35474;51.032;6.998;2023-04-24T03:43:15;10.28;73.25
52656;SHT85;35474;51.032;6.998;2023-04-24T03:45:42;10.21;73.03
52656;SHT85;35474;51.032;6.998;2023-04-24T03:48:08;10.17;73.88
52656;SHT85;35474;51.032;6.998;2023-04-24T03:50:35;10.20;73.94
52656;SHT85;35474;51.032;6.998;2023-04-24T03:53:01;10.26;73.56
52656;SHT85;35474;51.032;6.998;2023-04-24T03:55:27;10.26;73.58
52656;SHT85;35474;51.032;6.998;2023-04-24T03:57:54;10.18;73.09
52656;SHT85;35474;51.032;6.998;2023-04-24T04:00:20;10.22;72.94
52656;SHT85;35474;51.032;6.998;2023-04-24T04:02:47;10.21;73.24
52656;SHT85;35474;51.032;6.998;2023-04-24T04:05:13;10.17;73.05
52656;SHT85;35474;51.032;6.998;2023-04-24T04:07:40;10.07;73.05
52656;SHT85;35474;51.032;6.998;2023-04-24T04:10:06;10.02;73.35
52656;SHT85;35474;51.032;6.998;2023-04-24T04:12:33;10.08;73.22
52656;SHT85;35474;51.032;6.998;2023-04-24T04:15:00;9.98;73.31
52656;SHT85;35474;51.032;6.998;2023-04-24T04:17:26;10.00;73.24
52656;SHT85;35474;51.032;6.998;2023-04-24T04:19:52;10.05;73.10
52656;SHT85;35474;51.032;6.998;2023-04-24T04:22:19;9.95;73.03
52656;SHT85;35474;51.032;6.998;2023-04-24T04:24:45;9.91;72.99
52656;SHT85;35474;51.032;6.998;2023-04-24T04:27:12;9.91;73.11
52656;SHT85;35474;51.032;6.998;2023-04-24T04:29:39;9.90;73.02
52656;SHT85;35474;51.032;6.998;2023-04-24T04:32:06;9.93;72.95
52656;SHT85;35474;51.032;6.998;2023-04-24T04:34:33;9.90;73.37
52656;SHT85;35474;51.032;6.998;2023-04-24T04:37:00;9.87;73.49
52656;SHT85;35474;51.032;6.998;2023-04-24T04:39:27;9.93;73.55
52656;SHT85;35474;51.032;6.998;2023-04-24T04:41:55;9.93;73.82
52656;SHT85;35474;51.032;6.998;2023-04-24T04:44:22;9.94;73.76
52656;SHT85;35474;51.032;6.998;2023-04-24T04:46:49;10.01;73.64
52656;SHT85;35474;51.032;6.998;2023-04-24T04:49:16;9.97;73.70
52656;SHT85;35474;51.032;6.998;2023-04-24T04:51:43;9.86;74.12
52656;SHT85;35474;51.032;6.998;2023-04-24T04:54:09;9.94;74.10
52656;SHT85;35474;51.032;6.998;2023-04-24T04:56:35;9.91;73.79
52656;SHT85;35474;51.032;6.998;2023-04-24T04:59:02;9.98;73.68
52656;SHT85;35474;51.032;6.998;2023-04-24T05:01:28;9.94;73.74
52656;SHT85;35474;51.032;6.998;2023-04-24T05:03:55;10.00;73.76
52656;SHT85;35474;51.032;6.998;2023-04-24T05:06:22;9.91;73.82
52656;SHT85;35474;51.032;6.998;2023-04-24T05:08:49;9.95;73.84
52656;SHT85;35474;51.032;6.998;2023-04-24T05:11:17;9.98;73.71
52656;SHT85;35474;51.032;6.998;2023-04-24T05:13:43;10.10;73.23
52656;SHT85;35474;51.032;6.998;2023-04-24T05:16:10;10.14;73.29
52656;SHT85;35474;51.032;6.998;2023-04-24T05:18:38;10.08;73.45
52656;SHT85;35474;51.032;6.998;2023-04-24T05:21:05;10.10;73.13
52656;SHT85;35474;51.032;6.998;2023-04-24T05:23:32;10.08;73.28
52656;SHT85;35474;51.032;6.998;2023-04-24T05:25:58;10.02;73.18
52656;SHT85;35474;51.032;6.998;2023-04-24T05:28:25;10.11;73.23
52656;SHT85;35474;51.032;6.998;2023-04-24T05:30:54;10.01;73.39
52656;SHT85;35474;51.032;6.998;2023-04-24T05:33:22;9.90;74.04
52656;SHT85;35474;51.032;6.998;2023-04-24T05:35:48;9.81;74.58
52656;SHT85;35474;51.032;6.998;2023-04-24T05:38:15;9.64;76.52
52656;SHT85;35474;51.032;6.998;2023-04-24T05:40:43;9.60;77.48
52656;SHT85;35474;51.032;6.998;2023-04-24T05:43:10;9.64;77.46
52656;SHT85;35474;51.032;6.998;2023-04-24T05:45:37;9.57;77.74
52656;SHT85;35474;51.032;6.998;2023-04-24T05:48:04;9.63;78.31
52656;SHT85;35474;51.032;6.998;2023-04-24T05:50:31;9.49;78.47
52656;SHT85;35474;51.032;6.998;2023-04-24T05:53:00;9.60;79.31
52656;SHT85;35474;51.032;6.998;2023-04-24T05:55:28;9.62;79.35
52656;SHT85;35474;51.032;6.998;2023-04-24T05:57:54;9.59;78.88
52656;SHT85;35474;51.032;6.998;2023-04-24T06:00:21;9.69;77.97
52656;SHT85;35474;51.032;6.998;2023-04-24T06:02:47;9.79;77.49
52656;SHT85;35474;51.032;6.998;2023-04-24T06:05:15;9.83;77.85
52656;SHT85;35474;51.032;6.998;2023-04-24T06:07:42;9.86;76.51
52656;SHT85;35474;51.032;6.998;2023-04-24T06:10:08;9.97;76.55
52656;SHT85;35474;51.032;6.998;2023-04-24T06:12:35;10.02;76.54
52656;SHT85;35474;51.032;6.998;2023-04-24T06:15:03;9.94;77.18
52656;SHT85;35474;51.032;6.998;2023-04-24T06:17:30;9.70;78.73
52656;SHT85;35474;51.032;6.998;2023-04-24T06:19:59;9.53;80.25
52656;SHT85;35474;51.032;6.998;2023-04-24T06:22:26;9.38;80.76
52656;SHT85;35474;51.032;6.998;2023-04-24T06:24:52;9.22;80.63
52656;SHT85;35474;51.032;6.998;2023-04-24T06:27:19;9.19;80.67
52656;SHT85;35474;51.032;6.998;2023-04-24T06:32:34;9.21;80.68
52656;SHT85;35474;51.032;6.998;2023-04-24T06:35:01;9.42;79.53
52656;SHT85;35474;51.032;6.998;2023-04-24T06:37:28;9.32;79.63
52656;SHT85;35474;51.032;6.998;2023-04-24T06:39:56;9.23;80.03
52656;SHT85;35474;51.032;6.998;2023-04-24T06:42:25;9.25;80.60
52656;SHT85;35474;51.032;6.998;2023-04-24T06:44:52;9.23;81.20
52656;SHT85;35474;51.032;6.998;2023-04-24T06:47:19;9.21;81.18
52656;SHT85;35474;51.032;6.998;2023-04-24T06:49:45;9.21;80.80
52656;SHT85;35474;51.032;6.998;2023-04-24T06:52:12;9.18;81.38
52656;SHT85;35474;51.032;6.998;2023-04-24T06:54:38;9.08;82.93
52656;SHT85;35474;51.032;6.998;2023-04-24T06:57:08;9.12;83.17
52656;SHT85;35474;51.032;6.998;2023-04-24T06:59:35;9.04;83.77
52656;SHT85;35474;51.032;6.998;2023-04-24T07:02:01;9.00;84.39
52656;SHT85;35474;51.032;6.998;2023-04-24T07:04:29;8.89;85.60
52656;SHT85;35474;51.032;6.998;2023-04-24T07:06:56;8.88;85.21
52656;SHT85;35474;51.032;6.998;2023-04-24T07:09:24;8.89;85.85
52656;SHT85;35474;51.032;6.998;2023-04-24T07:11:51;8.74;85.41
52656;SHT85;35474;51.032;6.998;2023-04-24T07:14:19;8.63;85.70
52656;SHT85;35474;51.032;6.998;2023-04-24T07:16:46;8.53;86.51
52656;SHT85;35474;51.032;6.998;2023-04-24T07:19:13;8.43;87.50
52656;SHT85;35474;51.032;6.998;2023-04-24T07:21:40;8.32;87.90
52656;SHT85;35474;51.032;6.998;2023-04-24T07:24:07;8.26;88.88
52656;SHT85;35474;51.032;6.998;2023-04-24T07:26:37;8.16;90.05
52656;SHT85;35474;51.032;6.998;2023-04-24T07:29:05;8.13;91.05
52656;SHT85;35474;51.032;6.998;2023-04-24T07:31:32;8.19;91.80
52656;SHT85;35474;51.032;6.998;2023-04-24T07:33:59;8.15;91.91
52656;SHT85;35474;51.032;6.998;2023-04-24T07:36:25;8.18;92.30
52656;SHT85;35474;51.032;6.998;2023-04-24T07:38:53;8.10;92.07
52656;SHT85;35474;51.032;6.998;2023-04-24T07:41:20;8.13;91.91
52656;SHT85;35474;51.032;6.998;2023-04-24T07:43:49;8.09;91.82
52656;SHT85;35474;51.032;6.998;2023-04-24T07:46:16;8.05;90.80
52656;SHT85;35474;51.032;6.998;2023-04-24T07:48:43;7.92;91.13
52656;SHT85;35474;51.032;6.998;2023-04-24T07:51:09;7.98;91.86
52656;SHT85;35474;51.032;6.998;2023-04-24T07:53:38;7.91;91.98
52656;SHT85;35474;51.032;6.998;2023-04-24T07:56:04;7.86;92.52
52656;SHT85;35474;51.032;6.998;2023-04-24T07:58:31;7.77;92.04
52656;SHT85;35474;51.032;6.998;2023-04-24T08:00:58;7.67;92.37
52656;SHT85;35474;51.032;6.998;2023-04-24T08:03:24;7.64;92.80
52656;SHT85;35474;51.032;6.998;2023-04-24T08:05:51;7.57;92.74
52656;SHT85;35474;51.032;6.998;2023-04-24T08:08:19;7.58;93.25
52656;SHT85;35474;51.032;6.998;2023-04-24T08:10:47;7.43;93.01
52656;SHT85;35474;51.032;6.998;2023-04-24T08:13:14;7.46;93.25
52656;SHT85;35474;51.032;6.998;2023-04-24T08:15:41;7.34;93.61
52656;SHT85;35474;51.032;6.998;2023-04-24T08:18:07;7.26;93.85
52656;SHT85;35474;51.032;6.998;2023-04-24T08:20:34;7.20;94.05
52656;SHT85;35474;51.032;6.998;2023-04-24T08:23:01;7.26;94.45
52656;SHT85;35474;51.032;6.998;2023-04-24T08:25:27;7.12;94.23
52656;SHT85;35474;51.032;6.998;2023-04-24T08:27:54;7.13;94.25
52656;SHT85;35474;51.032;6.998;2023-04-24T08:30:20;7.07;93.50
52656;SHT85;35474;51.032;6.998;2023-04-24T08:32:47;7.14;93.74
52656;SHT85;35474;51.032;6.998;2023-04-24T08:35:14;7.17;93.47
52656;SHT85;35474;51.032;6.998;2023-04-24T08:37:40;7.17;93.80
52656;SHT85;35474;51.032;6.998;2023-04-24T08:40:12;7.16;93.74
52656;SHT85;35474;51.032;6.998;2023-04-24T08:42:44;7.14;93.51
52656;SHT85;35474;51.032;6.998;2023-04-24T08:45:11;7.19;92.97
52656;SHT85;35474;51.032;6.998;2023-04-24T08:47:39;7.16;93.02
52656;SHT85;35474;51.032;6.998;2023-04-24T08:50:07;7.12;92.95
52656;SHT85;35474;51.032;6.998;2023-04-24T08:52:37;7.16;92.61
52656;SHT85;35474;51.032;6.998;2023-04-24T08:55:04;7.22;92.57
52656;SHT85;35474;51.032;6.998;2023-04-24T08:57:31;7.26;92.66
52656;SHT85;35474;51.032;6.998;2023-04-24T08:59:58;7.27;92.72
52656;SHT85;35474;51.032;6.998;2023-04-24T09:02:26;7.28;93.40
52656;SHT85;35474;51.032;6.998;2023-04-24T09:04:53;7.26;93.36
52656;SHT85;35474;51.032;6.998;2023-04-24T09:07:22;7.40;93.23
52656;SHT85;35474;51.032;6.998;2023-04-24T09:09:51;7.40;93.14
52656;SHT85;35474;51.032;6.998;2023-04-24T09:12:22;7.39;92.90
52656;SHT85;35474;51.032;6.998;2023-04-24T09:14:49;7.43;93.41
52656;SHT85;35474;51.032;6.998;2023-04-24T09:17:17;7.40;93.04
52656;SHT85;35474;51.032;6.998;2023-04-24T09:19:43;7.43;93.17
52656;SHT85;35474;51.032;6.998;2023-04-24T09:22:10;7.47;92.95
52656;SHT85;35474;51.032;6.998;2023-04-24T09:24:37;7.50;92.95
52656;SHT85;35474;51.032;6.998;2023-04-24T09:27:04;7.48;92.98
52656;SHT85;35474;51.032;6.998;2023-04-24T09:29:31;7.55;93.47
52656;SHT85;35474;51.032;6.998;2023-04-24T09:31:59;7.53;93.62
52656;SHT85;35474;51.032;6.998;2023-04-24T09:34:26;7.47;93.27
52656;SHT85;35474;51.032;6.998;2023-04-24T09:36:53;7.58;92.65
52656;SHT85;35474;51.032;6.998;2023-04-24T09:39:20;7.54;92.84
52656;SHT85;35474;51.032;6.998;2023-04-24T09:44:14;7.64;93.20
52656;SHT85;35474;51.032;6.998;2023-04-24T09:46:53;7.61;93.19
52656;SHT85;35474;51.032;6.998;2023-04-24T09:49:30;7.61;93.20
52656;SHT85;35474;51.032;6.998;2023-04-24T09:52:06;7.70;93.33
52656;SHT85;35474;51.032;6.998;2023-04-24T09:54:36;7.75;93.53
52656;SHT85;35474;51.032;6.998;2023-04-24T09:57:03;7.75;93.77
52656;SHT85;35474;51.032;6.998;2023-04-24T09:59:30;7.89;94.02
52656;SHT85;35474;51.032;6.998;2023-04-24T10:01:57;7.85;94.11
52656;SHT85;35474;51.032;6.998;2023-04-24T10:04:26;7.86;94.09
52656;SHT85;35474;51.032;6.998;2023-04-24T10:06:55;7.95;94.07
52656;SHT85;35474;51.032;6.998;2023-04-24T10:09:23;7.93;94.35
52656;SHT85;35474;51.032;6.998;2023-04-24T10:11:52;8.05;94.35
52656;SHT85;35474;51.032;6.998;2023-04-24T10:14:23;8.16;94.29
52656;SHT85;35474;51.032;6.998;2023-04-24T10:16:52;8.12;93.78
52656;SHT85;35474;51.032;6.998;2023-04-24T10:19:21;8.32;94.25
52656;SHT85;35474;51.032;6.998;2023-04-24T10:21:49;8.40;94.00
52656;SHT85;35474;51.032;6.998;2023-04-24T10:24:16;8.54;93.63
52656;SHT85;35474;51.032;6.998;2023-04-24T10:26:45;8.42;92.74
52656;SHT85;35474;51.032;6.998;2023-04-24T10:29:16;8.54;91.81
52656;SHT85;35474;51.032;6.998;2023-04-24T10:31:44;8.77;92.19
52656;SHT85;35474;51.032;6.998;2023-04-24T10:34:14;8.73;91.73
52656;SHT85;35474;51.032;6.998;2023-04-24T10:36:43;8.75;91.36
52656;SHT85;35474;51.032;6.998;2023-04-24T10:39:17;8.89;91.28
52656;SHT85;35474;51.032;6.998;2023-04-24T10:41:53;8.88;90.63
52656;SHT85;35474;51.032;6.998;2023-04-24T10:44:22;8.84;89.82
52656;SHT85;35474;51.032;6.998;2023-04-24T10:46:52;8.98;90.13
52656;SHT85;35474;51.032;6.998;2023-04-24T10:49:28;8.98;89.57
52656;SHT85;35474;51.032;6.998;2023-04-24T10:52:00;8.98;89.05
52656;SHT85;35474;51.032;6.998;2023-04-24T10:54:41;8.94;88.94
52656;SHT85;35474;51.032;6.998;2023-04-24T11:02:41;8.94;87.40
52656;SHT85;35474;51.032;6.998;2023-04-24T11:05:15;8.84;86.69
52656;SHT85;35474;51.032;6.998;2023-04-24T11:10:39;8.88;87.75
52656;SHT85;35474;51.032;6.998;2023-04-24T11:13:16;8.91;87.21
52656;SHT85;35474;51.032;6.998;2023-04-24T11:16:11;8.97;87.20
52656;SHT85;35474;51.032;6.998;2023-04-24T11:18:44;8.95;85.74
52656;SHT85;35474;51.032;6.998;2023-04-24T11:21:17;8.89;85.30
52656;SHT85;35474;51.032;6.998;2023-04-24T11:23:47;9.01;85.26
52656;SHT85;35474;51.032;6.998;2023-04-24T11:26:18;9.08;84.89
52656;SHT85;35474;51.032;6.998;2023-04-24T11:28:47;9.36;84.73
52656;SHT85;35474;51.032;6.998;2023-04-24T11:34:08;9.84;83.07
52656;SHT85;35474;51.032;6.998;2023-04-24T11:36:36;10.04;82.27
52656;SHT85;35474;51.032;6.998;2023-04-24T11:39:03;10.38;82.07
52656;SHT85;35474;51.032;6.998;2023-04-24T11:41:30;10.77;81.67
52656;SHT85;35474;51.032;6.998;2023-04-24T11:43:58;10.55;80.56
52656;SHT85;35474;51.032;6.998;2023-04-24T11:46:27;10.44;81.36
52656;SHT85;35474;51.032;6.998;2023-04-24T11:48:56;10.49;80.24
52656;SHT85;35474;51.032;6.998;2023-04-24T11:51:26;10.33;79.55
52656;SHT85;35474;51.032;6.998;2023-04-24T11:54:13;10.38;80.26
52656;SHT85;35474;51.032;6.998;2023-04-24T11:56:39;10.42;79.29
52656;SHT85;35474;51.032;6.998;2023-04-24T11:59:12;10.59;79.30
52656;SHT85;35474;51.032;6.998;2023-04-24T12:01:42;10.79;79.28
52656;SHT85;35474;51.032;6.998;2023-04-24T12:04:10;10.77;77.46
52656;SHT85;35474;51.032;6.998;2023-04-24T12:06:37;10.68;76.79
52656;SHT85;35474;51.032;6.998;2023-04-24T12:09:04;10.70;77.72
52656;SHT85;35474;51.032;6.998;2023-04-24T12:11:52;10.44;76.62
52656;SHT85;35474;51.032;6.998;2023-04-24T12:14:24;10.49;76.91
52656;SHT85;35474;51.032;6.998;2023-04-24T12:16:51;10.41;76.92
52656;SHT85;35474;51.032;6.998;2023-04-24T12:19:21;10.33;77.17
52656;SHT85;35474;51.032;6.998;2023-04-24T12:22:01;10.21;76.76
52656;SHT85;35474;51.032;6.998;2023-04-24T12:24:31;10.17;77.19
52656;SHT85;35474;51.032;6.998;2023-04-24T12:26:58;10.14;78.16
52656;SHT85;35474;51.032;6.998;2023-04-24T12:29:24;10.12;76.84
52656;SHT85;35474;51.032;6.998;2023-04-24T12:31:51;10.21;76.12
52656;SHT85;35474;51.032;6.998;2023-04-24T12:34:21;10.24;75.29
52656;SHT85;35474;51.032;6.998;2023-04-24T12:36:49;10.29;74.16
52656;SHT85;35474;51.032;6.998;2023-04-24T12:39:17;10.31;74.67
52656;SHT85;35474;51.032;6.998;2023-04-24T12:41:58;10.48;73.73
52656;SHT85;35474;51.032;6.998;2023-04-24T12:44:31;10.66;72.54
52656;SHT85;35474;51.032;6.998;2023-04-24T12:47:01;11.06;72.11
52656;SHT85;35474;51.032;6.998;2023-04-24T12:49:29;11.35;70.08
52656;SHT85;35474;51.032;6.998;2023-04-24T12:51:56;11.37;68.50
52656;SHT85;35474;51.032;6.998;2023-04-24T12:54:23;11.41;69.15
52656;SHT85;35474;51.032;6.998;2023-04-24T12:56:49;11.31;68.26
52656;SHT85;35474;51.032;6.998;2023-04-24T12:59:16;11.51;69.14
52656;SHT85;35474;51.032;6.998;2023-04-24T13:01:42;11.68;67.91
52656;SHT85;35474;51.032;6.998;2023-04-24T13:04:09;12.02;67.28
52656;SHT85;35474;51.032;6.998;2023-04-24T13:06:36;11.99;64.81
52656;SHT85;35474;51.032;6.998;2023-04-24T13:09:02;11.86;63.85
52656;SHT85;35474;51.032;6.998;2023-04-24T13:11:29;11.70;65.15
52656;SHT85;35474;51.032;6.998;2023-04-24T13:13:56;11.92;64.92
52656;SHT85;35474;51.032;6.998;2023-04-24T13:16:22;12.46;63.85
52656;SHT85;35474;51.032;6.998;2023-04-24T13:18:49;12.36;63.85
52656;SHT85;35474;51.032;6.998;2023-04-24T13:21:16;12.23;65.13
52656;SHT85;35474;51.032;6.998;2023-04-24T13:23:42;12.18;64.18
52656;SHT85;35474;51.032;6.998;2023-04-24T13:26:09;12.13;63.80
52656;SHT85;35474;51.032;6.998;2023-04-24T13:28:36;12.02;64.33
52656;SHT85;35474;51.032;6.998;2023-04-24T13:31:04;11.90;64.82
52656;SHT85;35474;51.032;6.998;2023-04-24T13:33:31;12.02;64.61
52656;SHT85;35474;51.032;6.998;2023-04-24T13:35:57;12.07;64.19
52656;SHT85;35474;51.032;6.998;2023-04-24T13:38:24;12.71;63.45
52656;SHT85;35474;51.032;6.998;2023-04-24T13:40:50;13.18;61.26
52656;SHT85;35474;51.032;6.998;2023-04-24T13:43:16;12.67;63.20
52656;SHT85;35474;51.032;6.998;2023-04-24T13:45:43;12.37;63.26
52656;SHT85;35474;51.032;6.998;2023-04-24T13:48:09;12.28;63.45
52656;SHT85;35474;51.032;6.998;2023-04-24T13:50:36;12.12;64.08
52656;SHT85;35474;51.032;6.998;2023-04-24T13:53:03;11.99;64.31
52656;SHT85;35474;51.032;6.998;2023-04-24T13:55:29;11.72;65.24
52656;SHT85;35474;51.032;6.998;2023-04-24T13:57:56;11.70;65.99
52656;SHT85;35474;51.032;6.998;2023-04-24T14:00:22;11.49;64.73
52656;SHT85;35474;51.032;6.998;2023-04-24T14:02:49;11.32;63.94
52656;SHT85;35474;51.032;6.998;2023-04-24T14:05:16;11.32;64.65
52656;SHT85;35474;51.032;6.998;2023-04-24T14:07:43;11.39;65.17
52656;SHT85;35474;51.032;6.998;2023-04-24T14:10:09;11.57;64.34
52656;SHT85;35474;51.032;6.998;2023-04-24T14:12:36;12.51;62.64
52656;SHT85;35474;51.032;6.998;2023-04-24T14:15:03;12.46;62.58
52656;SHT85;35474;51.032;6.998;2023-04-24T14:17:31;12.57;62.42
52656;SHT85;35474;51.032;6.998;2023-04-24T14:19:57;12.82;59.51
52656;SHT85;35474;51.032;6.998;2023-04-24T14:22:26;12.41;62.00
52656;SHT85;35474;51.032;6.998;2023-04-24T14:24:52;12.53;62.13
52656;SHT85;35474;51.032;6.998;2023-04-24T14:27:19;12.26;61.93
52656;SHT85;35474;51.032;6.998;2023-04-24T14:29:45;12.46;61.16
52656;SHT85;35474;51.032;6.998;2023-04-24T14:32:12;12.96;59.89
52656;SHT85;35474;51.032;6.998;2023-04-24T14:34:41;13.00;59.87
52656;SHT85;35474;51.032;6.998;2023-04-24T14:37:07;13.05;59.60
52656;SHT85;35474;51.032;6.998;2023-04-24T14:39:34;13.39;59.82
52656;SHT85;35474;51.032;6.998;2023-04-24T14:42:00;13.32;59.61
52656;SHT85;35474;51.032;6.998;2023-04-24T14:44:30;12.92;59.92
52656;SHT85;35474;51.032;6.998;2023-04-24T14:46:56;12.89;60.80
52656;SHT85;35474;51.032;6.998;2023-04-24T14:49:23;12.95;61.01
52656;SHT85;35474;51.032;6.998;2023-04-24T14:51:49;13.19;62.03
52656;SHT85;35474;51.032;6.998;2023-04-24T14:54:16;13.26;61.32
52656;SHT85;35474;51.032;6.998;2023-04-24T14:56:42;12.76;61.35
52656;SHT85;35474;51.032;6.998;2023-04-24T14:59:13;12.57;62.55
52656;SHT85;35474;51.032;6.998;2023-04-24T15:01:40;12.36;61.33
52656;SHT85;35474;51.032;6.998;2023-04-24T15:04:07;12.13;59.32
52656;SHT85;35474;51.032;6.998;2023-04-24T15:06:33;12.40;60.27
52656;SHT85;35474;51.032;6.998;2023-04-24T15:09:00;12.74;60.53
52656;SHT85;35474;51.032;6.998;2023-04-24T15:11:26;12.65;59.83
52656;SHT85;35474;51.032;6.998;2023-04-24T15:13:53;13.12;58.92
52656;SHT85;35474;51.032;6.998;2023-04-24T15:16:20;13.44;56.65
52656;SHT85;35474;51.032;6.998;2023-04-24T15:18:47;13.44;56.70
52656;SHT85;35474;51.032;6.998;2023-04-24T15:21:13;14.25;55.48
52656;SHT85;35474;51.032;6.998;2023-04-24T15:23:39;13.71;55.20
52656;SHT85;35474;51.032;6.998;2023-04-24T15:26:06;13.42;56.71
52656;SHT85;35474;51.032;6.998;2023-04-24T15:28:32;13.11;57.31
52656;SHT85;35474;51.032;6.998;2023-04-24T15:30:59;13.36;56.83
52656;SHT85;35474;51.032;6.998;2023-04-24T15:33:28;12.88;57.06
52656;SHT85;35474;51.032;6.998;2023-04-24T15:35:55;12.58;57.96
52656;SHT85;35474;51.032;6.998;2023-04-24T15:38:21;13.29;56.46
52656;SHT85;35474;51.032;6.998;2023-04-24T15:40:48;13.67;55.74
52656;SHT85;35474;51.032;6.998;2023-04-24T15:43:14;13.53;56.97
52656;SHT85;35474;51.032;6.998;2023-04-24T15:45:42;13.37;57.14
52656;SHT85;35474;51.032;6.998;2023-04-24T15:48:09;12.96;56.91
52656;SHT85;35474;51.032;6.998;2023-04-24T15:50:36;12.92;56.69
52656;SHT85;35474;51.032;6.998;2023-04-24T15:53:02;12.91;57.47
52656;SHT85;35474;51.032;6.998;2023-04-24T15:55:28;12.85;57.41